Time;durP1;ratioP1;P1;durP2;ratioP2;P2;SDS_P1;SDS_P2;PMS_P1;PMS_P2;Temp;Humidity;BMP_temperature;BMP_pressure;BME280_temperature;BME280_humidity;BME280_pressure;Samples;Min_cycle;Max_cycle;Signal;HPM_P1;HPM_P2
2024/03/13 00:01:21;;;;;;;;;;;20.10;52.60;;;;;;1523828;77;860;-74
2024/03/13 00:03:23;;;;;;;;;;;20.20;52.60;;;;;;1506987;78;1965;-73
2024/03/13 00:05:25;;;;;;;;;;;20.10;52.60;;;;;;1500940;78;726;-74
2024/03/13 00:07:27;;;;;;;;;;;20.20;52.60;;;;;;1495962;78;730;-72
2024/03/13 00:09:30;;;;;;;;;;;20.10;52.70;;;;;;1491042;78;712;-74
2024/03/13 00:11:32;;;;;;;;;;;20.20;52.80;;;;;;1495686;78;683;-72
2024/03/13 00:13:34;;;;;;;;;;;20.10;52.70;;;;;;1498121;78;1157;-74
2024/03/13 00:15:36;;;;;;;;;;;20.10;52.80;;;;;;1501298;78;732;-75
2024/03/13 00:17:38;;;;;;;;;;;20.10;52.80;;;;;;1502554;78;763;-74
2024/03/13 00:19:39;;;;;;;;;;;20.20;52.80;;;;;;1502868;78;721;-74
2024/03/13 00:21:41;;;;;;;;;;;20.10;52.80;;;;;;1492241;78;1942;-75
2024/03/13 00:23:43;;;;;;;;;;;20.20;52.90;;;;;;1494264;78;1097;-75
2024/03/13 00:25:45;;;;;;;;;;;20.20;52.90;;;;;;1501335;78;710;-75
2024/03/13 00:27:47;;;;;;;;;;;20.20;52.90;;;;;;1494309;78;722;-73
2024/03/13 00:29:49;;;;;;;;;;;20.10;53.00;;;;;;1491257;78;818;-75
2024/03/13 00:31:51;;;;;;;;;;;20.10;53.00;;;;;;1498399;78;726;-73
2024/03/13 00:33:53;;;;;;;;;;;20.20;53.10;;;;;;1499311;78;1156;-73
2024/03/13 00:35:55;;;;;;;;;;;20.10;53.10;;;;;;1500188;78;696;-74
2024/03/13 00:37:59;;;;;;;;;;;20.10;53.10;;;;;;1481655;78;725;-77
2024/03/13 00:40:01;;;;;;;;;;;20.10;53.10;;;;;;1498326;78;703;-75
2024/03/13 00:42:03;;;;;;;;;;;20.20;53.20;;;;;;1500699;78;1939;-73
2024/03/13 00:44:06;;;;;;;;;;;20.20;53.20;;;;;;1503238;78;1118;-75
2024/03/13 00:46:08;;;;;;;;;;;20.10;53.30;;;;;;1502318;78;632;-74
2024/03/13 00:48:11;;;;;;;;;;;20.20;53.30;;;;;;1497064;78;638;-74
2024/03/13 00:50:15;;;;;;;;;;;20.20;53.30;;;;;;1499246;78;718;-73
2024/03/13 00:52:16;;;;;;;;;;;20.10;53.40;;;;;;1493968;78;1166;-73
2024/03/13 00:54:19;;;;;;;;;;;20.20;53.40;;;;;;1510697;78;721;-73
2024/03/13 00:56:21;;;;;;;;;;;20.10;53.40;;;;;;1498468;78;719;-75
2024/03/13 00:58:23;;;;;;;;;;;20.20;53.40;;;;;;1494936;78;613;-74
2024/03/13 01:00:28;;;;;;;;;;;20.20;53.40;;;;;;1505119;78;745;-76
2024/03/13 01:02:28;;;;;;;;;;;20.10;53.40;;;;;;1505834;78;1931;-75
2024/03/13 01:04:30;;;;;;;;;;;20.20;53.50;;;;;;1504870;78;954;-77
2024/03/13 01:06:32;;;;;;;;;;;20.20;53.50;;;;;;1503468;78;759;-78
2024/03/13 01:08:34;;;;;;;;;;;20.10;53.50;;;;;;1505520;78;697;-74
2024/03/13 01:10:36;;;;;;;;;;;20.20;53.50;;;;;;1496975;78;727;-79
2024/03/13 01:12:39;;;;;;;;;;;20.20;53.50;;;;;;1499500;78;1169;-75
2024/03/13 01:14:41;;;;;;;;;;;20.10;53.50;;;;;;1502900;78;704;-74
2024/03/13 01:16:45;;;;;;;;;;;20.20;53.50;;;;;;1501214;78;608;-75
2024/03/13 01:18:47;;;;;;;;;;;20.20;53.60;;;;;;1496819;78;729;-75
2024/03/13 01:20:48;;;;;;;;;;;20.10;53.50;;;;;;1504946;78;682;-75
2024/03/13 01:22:51;;;;;;;;;;;20.20;53.60;;;;;;1496625;78;2085;-79
2024/03/13 01:24:53;;;;;;;;;;;20.20;53.60;;;;;;1502703;78;640;-75
2024/03/13 01:26:55;;;;;;;;;;;20.20;53.60;;;;;;1502745;78;667;-75
2024/03/13 01:28:56;;;;;;;;;;;20.20;53.60;;;;;;1493969;78;699;-78
2024/03/13 01:30:59;;;;;;;;;;;20.10;53.60;;;;;;1504696;78;712;-73
2024/03/13 01:33:01;;;;;;;;;;;20.10;53.60;;;;;;1500592;78;1154;-72
2024/03/13 01:35:03;;;;;;;;;;;20.20;53.60;;;;;;1496904;78;682;-72
2024/03/13 01:39:25;;;;;;;;;;;20.10;53.60;;;;;;1500788;78;748;-74
2024/03/13 01:55:36;;;;;;;;;;;20.10;53.60;;;;;;1499519;78;1614;-77
2024/03/13 02:02:24;;;;;;;;;;;20.20;53.70;;;;;;1482578;78;1671;-77
2024/03/13 02:04:26;;;;;;;;;;;20.20;53.70;;;;;;1526325;77;1143;-75
2024/03/13 02:06:29;;;;;;;;;;;20.20;53.70;;;;;;1555278;75;735;-75
2024/03/13 02:08:32;;;;;;;;;;;20.10;53.70;;;;;;1562015;75;695;-76
2024/03/13 02:10:34;;;;;;;;;;;20.20;53.70;;;;;;1555433;75;696;-74
2024/03/13 02:12:36;;;;;;;;;;;20.20;53.80;;;;;;1550787;75;1178;-75
2024/03/13 02:14:38;;;;;;;;;;;20.10;53.80;;;;;;1559946;75;706;-75
2024/03/13 02:16:41;;;;;;;;;;;20.20;53.80;;;;;;1552033;75;749;-75
2024/03/13 02:18:43;;;;;;;;;;;20.20;53.80;;;;;;1552393;75;684;-78
2024/03/13 02:20:46;;;;;;;;;;;20.10;53.80;;;;;;1563548;75;743;-75
2024/03/13 02:22:49;;;;;;;;;;;20.20;53.80;;;;;;1558296;75;1939;-74
2024/03/13 02:24:52;;;;;;;;;;;20.20;53.90;;;;;;1558091;75;661;-75
2024/03/13 02:26:54;;;;;;;;;;;20.10;53.90;;;;;;1560630;75;579;-74
2024/03/13 02:28:56;;;;;;;;;;;20.10;53.80;;;;;;1558899;75;709;-75
2024/03/13 02:30:58;;;;;;;;;;;20.20;53.80;;;;;;1556877;75;765;-75
2024/03/13 02:33:00;;;;;;;;;;;20.20;53.90;;;;;;1560720;75;1143;-72
2024/03/13 02:35:03;;;;;;;;;;;20.10;53.90;;;;;;1564808;75;767;-71
2024/03/13 02:37:05;;;;;;;;;;;20.20;53.90;;;;;;1555313;75;746;-72
2024/03/13 02:39:08;;;;;;;;;;;20.10;53.90;;;;;;1561365;75;646;-72
2024/03/13 02:41:10;;;;;;;;;;;20.20;53.90;;;;;;1569061;75;778;-72
2024/03/13 02:43:12;;;;;;;;;;;20.20;53.90;;;;;;1562041;75;1936;-73
2024/03/13 02:45:14;;;;;;;;;;;20.10;53.90;;;;;;1559859;75;671;-73
2024/03/13 02:47:17;;;;;;;;;;;20.20;53.90;;;;;;1559778;75;588;-73
2024/03/13 02:49:19;;;;;;;;;;;20.20;53.90;;;;;;1565266;75;1475;-71
2024/03/13 02:51:21;;;;;;;;;;;20.20;53.90;;;;;;1564752;75;728;-71
2024/03/13 02:53:23;;;;;;;;;;;20.10;53.90;;;;;;1558610;75;1095;-72
2024/03/13 02:55:25;;;;;;;;;;;20.20;53.90;;;;;;1562479;75;627;-72
2024/03/13 02:57:27;;;;;;;;;;;20.20;53.90;;;;;;1557085;75;602;-72
2024/03/13 02:59:28;;;;;;;;;;;20.20;54.00;;;;;;1557711;75;683;-72
2024/03/13 03:01:30;;;;;;;;;;;20.20;54.00;;;;;;1559233;75;687;-75
2024/03/13 03:03:32;;;;;;;;;;;20.10;54.00;;;;;;1557456;75;1940;-70
2024/03/13 03:05:35;;;;;;;;;;;20.10;54.00;;;;;;1562855;74;1051;-72
2024/03/13 03:07:37;;;;;;;;;;;20.10;53.90;;;;;;1562987;75;642;-72
2024/03/13 03:09:39;;;;;;;;;;;20.20;53.90;;;;;;1563503;75;734;-72
2024/03/13 03:11:44;;;;;;;;;;;20.10;54.00;;;;;;1562394;75;788;-73
2024/03/13 03:13:44;;;;;;;;;;;20.20;54.00;;;;;;1550347;75;1175;-77
2024/03/13 03:15:48;;;;;;;;;;;20.20;53.90;;;;;;1559293;75;650;-72
2024/03/13 03:17:52;;;;;;;;;;;20.20;53.90;;;;;;1559320;75;784;-75
2024/03/13 03:19:53;;;;;;;;;;;20.10;53.90;;;;;;1554529;75;1016;-72
2024/03/13 03:21:55;;;;;;;;;;;20.10;54.00;;;;;;1554615;75;663;-73
2024/03/13 03:23:57;;;;;;;;;;;20.20;54.00;;;;;;1550947;75;1948;-72
2024/03/13 03:25:59;;;;;;;;;;;20.20;54.00;;;;;;1564409;75;680;-74
2024/03/13 03:28:01;;;;;;;;;;;20.20;54.10;;;;;;1562718;75;714;-73
2024/03/13 03:30:03;;;;;;;;;;;20.20;54.00;;;;;;1559902;75;691;-73
2024/03/13 03:32:05;;;;;;;;;;;20.20;54.10;;;;;;1561916;75;719;-73
2024/03/13 03:34:08;;;;;;;;;;;20.30;54.20;;;;;;1557985;75;1016;-73
2024/03/13 03:36:13;;;;;;;;;;;20.20;54.10;;;;;;1557578;75;725;-73
2024/03/13 03:38:14;;;;;;;;;;;20.20;54.10;;;;;;1561001;75;1107;-74
2024/03/13 03:40:16;;;;;;;;;;;20.20;54.00;;;;;;1555808;75;724;-74
2024/03/13 03:42:18;;;;;;;;;;;20.20;54.00;;;;;;1553992;75;1143;-74
2024/03/13 03:44:20;;;;;;;;;;;20.20;54.10;;;;;;1560519;75;1930;-75
2024/03/13 03:46:22;;;;;;;;;;;20.20;54.10;;;;;;1560890;75;735;-76
2024/03/13 03:48:23;;;;;;;;;;;20.20;54.10;;;;;;1561863;75;721;-74
2024/03/13 03:50:25;;;;;;;;;;;20.20;54.10;;;;;;1558194;75;708;-77
2024/03/13 03:52:27;;;;;;;;;;;20.20;54.10;;;;;;1560722;75;1132;-75
2024/03/13 03:54:29;;;;;;;;;;;20.20;54.10;;;;;;1562026;75;723;-73
2024/03/13 03:56:32;;;;;;;;;;;20.20;54.10;;;;;;1565336;75;735;-72
2024/03/13 03:58:34;;;;;;;;;;;20.20;54.10;;;;;;1561180;75;816;-71
2024/03/13 04:00:36;;;;;;;;;;;20.20;54.10;;;;;;1557891;75;653;-74
2024/03/13 04:02:38;;;;;;;;;;;20.20;54.10;;;;;;1558588;75;1091;-74
2024/03/13 04:04:39;;;;;;;;;;;20.20;54.10;;;;;;1562181;75;1949;-75
2024/03/13 04:06:41;;;;;;;;;;;20.20;54.10;;;;;;1546984;75;977;-75
2024/03/13 04:08:46;;;;;;;;;;;20.20;54.20;;;;;;1555877;75;749;-75
2024/03/13 04:10:48;;;;;;;;;;;20.20;54.20;;;;;;1555641;76;740;-74
2024/03/13 04:12:50;;;;;;;;;;;20.10;54.20;;;;;;1549603;75;1178;-77
2024/03/13 04:14:52;;;;;;;;;;;20.20;54.20;;;;;;1556504;75;827;-78
2024/03/13 04:16:54;;;;;;;;;;;20.20;54.20;;;;;;1547523;75;748;-75
2024/03/13 04:18:56;;;;;;;;;;;20.20;54.20;;;;;;1562985;75;749;-77
2024/03/13 04:20:59;;;;;;;;;;;20.20;54.20;;;;;;1559099;75;697;-76
2024/03/13 04:23:00;;;;;;;;;;;20.20;54.20;;;;;;1553016;75;1143;-78
2024/03/13 04:25:04;;;;;;;;;;;20.20;54.20;;;;;;1555462;75;1946;-75
2024/03/13 04:27:06;;;;;;;;;;;20.20;54.20;;;;;;1549656;75;787;-76
2024/03/13 04:29:10;;;;;;;;;;;20.20;54.20;;;;;;1552124;75;696;-77
2024/03/13 04:31:13;;;;;;;;;;;20.20;54.20;;;;;;1557177;75;1635;-78
2024/03/13 04:33:18;;;;;;;;;;;20.20;54.20;;;;;;1555205;76;1970;-75
2024/03/13 04:35:20;;;;;;;;;;;20.20;54.20;;;;;;1556437;75;742;-73
2024/03/13 04:37:23;;;;;;;;;;;20.10;54.30;;;;;;1555388;75;818;-75
2024/03/13 04:39:25;;;;;;;;;;;20.20;54.30;;;;;;1550818;75;703;-73
2024/03/13 04:41:26;;;;;;;;;;;20.20;54.20;;;;;;1556321;75;787;-74
2024/03/13 04:43:30;;;;;;;;;;;20.20;54.30;;;;;;1558818;75;1922;-74
2024/03/13 04:45:32;;;;;;;;;;;20.10;54.30;;;;;;1551305;75;1850;-74
2024/03/13 04:47:35;;;;;;;;;;;20.20;54.30;;;;;;1554969;75;717;-75
2024/03/13 04:49:37;;;;;;;;;;;20.20;54.70;;;;;;1559006;75;727;-76
2024/03/13 04:51:39;;;;;;;;;;;20.20;54.60;;;;;;1556712;75;635;-76
2024/03/13 04:53:43;;;;;;;;;;;20.20;54.70;;;;;;1555510;75;1145;-75
2024/03/13 04:55:44;;;;;;;;;;;20.20;54.60;;;;;;1550133;75;1089;-76
2024/03/13 04:57:46;;;;;;;;;;;20.20;54.60;;;;;;1553257;75;785;-76
2024/03/13 04:59:49;;;;;;;;;;;20.30;54.60;;;;;;1563928;75;782;-75
2024/03/13 05:01:50;;;;;;;;;;;20.20;54.40;;;;;;1558231;75;786;-76
2024/03/13 05:03:52;;;;;;;;;;;20.20;54.40;;;;;;1553120;76;1947;-75
2024/03/13 05:05:54;;;;;;;;;;;20.30;54.60;;;;;;1557081;76;1097;-76
2024/03/13 05:07:56;;;;;;;;;;;20.30;54.50;;;;;;1552540;75;679;-76
2024/03/13 05:09:59;;;;;;;;;;;20.20;54.40;;;;;;1541645;75;578;-75
2024/03/13 05:12:03;;;;;;;;;;;20.20;54.40;;;;;;1550347;75;639;-74
2024/03/13 05:14:06;;;;;;;;;;;20.20;54.40;;;;;;1548906;76;1165;-76
2024/03/13 05:16:09;;;;;;;;;;;20.20;54.40;;;;;;1550090;76;682;-75
2024/03/13 05:18:12;;;;;;;;;;;20.30;54.60;;;;;;1552634;76;707;-75
2024/03/13 05:20:17;;;;;;;;;;;20.20;54.50;;;;;;1561184;75;664;-73
2024/03/13 05:22:17;;;;;;;;;;;20.30;54.70;;;;;;1560386;76;1543;-75
2024/03/13 05:24:19;;;;;;;;;;;20.20;54.80;;;;;;1547553;75;1943;-74
2024/03/13 05:26:21;;;;;;;;;;;20.20;54.70;;;;;;1552830;76;754;-77
2024/03/13 05:28:25;;;;;;;;;;;20.30;55.10;;;;;;1550101;75;721;-76
2024/03/13 05:30:27;;;;;;;;;;;20.30;55.00;;;;;;1551515;76;675;-74
2024/03/13 05:32:29;;;;;;;;;;;20.30;55.00;;;;;;1555851;76;1129;-74
2024/03/13 05:34:30;;;;;;;;;;;20.20;54.80;;;;;;1558207;76;802;-74
2024/03/13 05:36:36;;;;;;;;;;;20.30;54.90;;;;;;1554677;76;739;-71
2024/03/13 05:38:38;;;;;;;;;;;20.30;55.00;;;;;;1553826;76;696;-75
2024/03/13 05:40:40;;;;;;;;;;;20.30;54.90;;;;;;1553704;75;609;-72
2024/03/13 05:42:42;;;;;;;;;;;20.20;55.10;;;;;;1549180;75;1149;-73
2024/03/13 05:44:44;;;;;;;;;;;20.20;54.30;;;;;;1553479;75;1939;-72
2024/03/13 05:46:48;;;;;;;;;;;20.20;54.40;;;;;;1533563;76;728;-73
2024/03/13 05:48:49;;;;;;;;;;;20.30;54.70;;;;;;1539385;75;1029;-71
2024/03/13 05:50:51;;;;;;;;;;;20.30;54.70;;;;;;1556641;76;781;-73
2024/03/13 05:52:53;;;;;;;;;;;20.30;54.70;;;;;;1549778;76;1144;-75
2024/03/13 05:54:55;;;;;;;;;;;20.20;54.60;;;;;;1556520;76;755;-75
2024/03/13 05:56:58;;;;;;;;;;;20.30;54.70;;;;;;1554492;76;680;-72
2024/03/13 05:59:00;;;;;;;;;;;20.30;54.70;;;;;;1553102;76;742;-72
2024/03/13 06:01:01;;;;;;;;;;;20.20;54.60;;;;;;1558093;76;725;-75
2024/03/13 06:03:03;;;;;;;;;;;20.30;54.70;;;;;;1553992;76;1137;-70
2024/03/13 06:05:19;;;;;;;;;;;20.20;54.70;;;;;;1552632;75;1924;-72
2024/03/13 06:07:17;;;;;;;;;;;20.20;54.70;;;;;;1557813;76;1659;-71
2024/03/13 06:09:19;;;;;;;;;;;20.30;54.80;;;;;;1548031;75;742;-70
2024/03/13 06:11:22;;;;;;;;;;;20.30;54.70;;;;;;1552753;76;736;-72
2024/03/13 06:13:24;;;;;;;;;;;20.20;54.70;;;;;;1544435;76;1207;-71
2024/03/13 06:15:26;;;;;;;;;;;20.20;54.70;;;;;;1558281;76;950;-72
2024/03/13 06:17:28;;;;;;;;;;;20.30;54.80;;;;;;1554686;75;726;-74
2024/03/13 06:19:30;;;;;;;;;;;20.20;54.70;;;;;;1547858;76;746;-74
2024/03/13 06:21:32;;;;;;;;;;;20.30;54.80;;;;;;1553343;76;783;-72
2024/03/13 06:23:36;;;;;;;;;;;20.30;54.80;;;;;;1555642;76;1161;-71
2024/03/13 06:25:39;;;;;;;;;;;20.20;54.70;;;;;;1554842;75;1922;-74
2024/03/13 06:27:41;;;;;;;;;;;20.20;54.60;;;;;;1552493;76;759;-71
2024/03/13 06:29:59;;;;;;;;;;;20.20;54.60;;;;;;1543083;75;770;-72
2024/03/13 06:32:01;;;;;;;;;;;20.20;54.60;;;;;;1544942;76;616;-71
2024/03/13 06:34:03;;;;;;;;;;;20.30;54.80;;;;;;1548408;76;1117;-70
2024/03/13 06:36:05;;;;;;;;;;;20.30;54.70;;;;;;1549361;76;685;-70
2024/03/13 06:38:08;;;;;;;;;;;20.20;54.60;;;;;;1557216;75;760;-70
2024/03/13 06:40:10;;;;;;;;;;;20.30;54.70;;;;;;1553241;76;703;-72
2024/03/13 06:42:12;;;;;;;;;;;20.20;54.60;;;;;;1558525;76;684;-71
2024/03/13 06:44:14;;;;;;;;;;;20.20;54.50;;;;;;1560420;76;1939;-72
2024/03/13 06:46:16;;;;;;;;;;;20.20;54.60;;;;;;1559628;76;725;-71
2024/03/13 06:48:18;;;;;;;;;;;20.20;54.60;;;;;;1555974;76;772;-70
2024/03/13 06:50:20;;;;;;;;;;;20.20;54.60;;;;;;1560345;76;725;-72
2024/03/13 06:52:21;;;;;;;;;;;20.30;54.60;;;;;;1554368;76;1138;-74
2024/03/13 06:54:23;;;;;;;;;;;20.30;54.70;;;;;;1552089;76;821;-73
2024/03/13 06:56:27;;;;;;;;;;;20.20;54.50;;;;;;1557752;76;789;-71
2024/03/13 06:58:29;;;;;;;;;;;20.20;54.50;;;;;;1551266;76;723;-72
2024/03/13 07:00:32;;;;;;;;;;;20.20;54.40;;;;;;1552466;76;667;-73
2024/03/13 07:02:34;;;;;;;;;;;20.10;54.50;;;;;;1551586;75;1165;-72
2024/03/13 07:04:36;;;;;;;;;;;20.20;54.50;;;;;;1557038;75;1922;-76
2024/03/13 07:06:38;;;;;;;;;;;20.20;54.40;;;;;;1552696;76;1054;-71
2024/03/13 07:08:40;;;;;;;;;;;20.20;54.40;;;;;;1547017;76;772;-71
2024/03/13 07:10:42;;;;;;;;;;;20.20;54.40;;;;;;1555336;76;593;-72
2024/03/13 07:12:44;;;;;;;;;;;20.20;54.40;;;;;;1550751;75;1203;-71
2024/03/13 07:14:46;;;;;;;;;;;20.20;54.30;;;;;;1554137;75;732;-70
2024/03/13 07:16:48;;;;;;;;;;;20.20;54.40;;;;;;1554751;76;692;-73
2024/03/13 07:18:50;;;;;;;;;;;20.20;54.40;;;;;;1556745;76;738;-71
2024/03/13 07:20:52;;;;;;;;;;;20.20;54.40;;;;;;1556849;76;770;-74
2024/03/13 07:22:53;;;;;;;;;;;20.20;54.40;;;;;;1555862;76;1143;-73
2024/03/13 07:24:56;;;;;;;;;;;20.20;54.30;;;;;;1556592;76;1925;-71
2024/03/13 07:26:58;;;;;;;;;;;20.20;54.30;;;;;;1550349;75;753;-71
2024/03/13 07:29:04;;;;;;;;;;;20.20;54.30;;;;;;1560305;75;792;-73
2024/03/13 07:31:07;;;;;;;;;;;20.20;54.30;;;;;;1553317;76;734;-70
2024/03/13 07:33:11;;;;;;;;;;;20.30;54.40;;;;;;1555329;76;1161;-70
2024/03/13 07:35:14;;;;;;;;;;;20.20;54.30;;;;;;1556273;76;1251;-74
2024/03/13 07:37:15;;;;;;;;;;;20.20;54.30;;;;;;1557289;76;747;-72
2024/03/13 07:39:17;;;;;;;;;;;20.20;54.30;;;;;;1558906;76;665;-70
2024/03/13 07:41:19;;;;;;;;;;;20.10;54.20;;;;;;1551134;76;608;-71
2024/03/13 07:43:21;;;;;;;;;;;20.20;54.20;;;;;;1552387;75;1142;-74
2024/03/13 07:45:25;;;;;;;;;;;20.20;54.20;;;;;;1543978;76;1949;-75
2024/03/13 07:47:26;;;;;;;;;;;20.20;54.20;;;;;;1551463;75;1133;-71
2024/03/13 07:49:30;;;;;;;;;;;20.10;54.20;;;;;;1546805;75;723;-70
2024/03/13 07:51:32;;;;;;;;;;;20.10;54.10;;;;;;1556207;75;1543;-72
2024/03/13 07:53:35;;;;;;;;;;;20.20;54.20;;;;;;1549572;76;1153;-73
2024/03/13 07:55:37;;;;;;;;;;;20.10;54.20;;;;;;1548429;75;721;-73
2024/03/13 07:57:39;;;;;;;;;;;20.20;54.10;;;;;;1548520;75;807;-72
2024/03/13 07:59:42;;;;;;;;;;;20.20;54.10;;;;;;1558924;75;696;-72
2024/03/13 08:01:45;;;;;;;;;;;20.20;54.10;;;;;;1550856;76;802;-74
2024/03/13 08:03:47;;;;;;;;;;;20.20;54.10;;;;;;1555342;75;1122;-71
2024/03/13 08:05:49;;;;;;;;;;;20.20;54.10;;;;;;1554808;76;1951;-70
2024/03/13 08:07:51;;;;;;;;;;;20.20;54.10;;;;;;1552034;75;1090;-74
2024/03/13 08:09:53;;;;;;;;;;;20.30;54.20;;;;;;1568327;75;749;-75
2024/03/13 08:11:55;;;;;;;;;;;20.20;54.00;;;;;;1568113;75;817;-76
2024/03/13 08:13:57;;;;;;;;;;;20.10;54.00;;;;;;1568470;75;1194;-71
2024/03/13 08:16:00;;;;;;;;;;;20.10;54.00;;;;;;1567533;74;702;-72
2024/03/13 08:18:02;;;;;;;;;;;20.10;53.90;;;;;;1559308;75;794;-71
2024/03/13 08:20:04;;;;;;;;;;;20.10;53.90;;;;;;1563147;75;748;-75
2024/03/13 08:22:07;;;;;;;;;;;20.20;53.90;;;;;;1567509;75;733;-73
2024/03/13 08:24:09;;;;;;;;;;;20.10;54.00;;;;;;1564016;75;1105;-72
2024/03/13 08:26:16;;;;;;;;;;;20.10;54.00;;;;;;1566151;74;1950;-71
2024/03/13 08:28:17;;;;;;;;;;;20.10;53.90;;;;;;1561666;75;1802;-70
2024/03/13 08:30:20;;;;;;;;;;;20.10;53.90;;;;;;1560933;75;752;-72
2024/03/13 08:32:22;;;;;;;;;;;20.10;53.90;;;;;;1572088;75;1118;-70
2024/03/13 08:34:24;;;;;;;;;;;20.10;53.90;;;;;;1559130;74;739;-70
2024/03/13 08:36:26;;;;;;;;;;;20.10;53.90;;;;;;1551660;75;770;-71
2024/03/13 08:38:28;;;;;;;;;;;20.10;53.90;;;;;;1564847;74;709;-71
2024/03/13 08:40:29;;;;;;;;;;;20.10;53.90;;;;;;1559163;74;742;-73
2024/03/13 08:42:31;;;;;;;;;;;20.10;53.90;;;;;;1562618;75;1119;-73
2024/03/13 08:44:33;;;;;;;;;;;20.10;53.80;;;;;;1563830;74;761;-76
2024/03/13 08:46:35;;;;;;;;;;;20.10;53.80;;;;;;1565186;75;1946;-72
2024/03/13 08:48:38;;;;;;;;;;;20.10;53.80;;;;;;1567839;75;725;-71
2024/03/13 08:50:40;;;;;;;;;;;20.10;53.80;;;;;;1569254;74;808;-75
2024/03/13 08:52:43;;;;;;;;;;;20.10;53.80;;;;;;1559695;75;1139;-73
2024/03/13 08:54:47;;;;;;;;;;;20.10;53.80;;;;;;1565314;75;751;-70
2024/03/13 08:56:48;;;;;;;;;;;20.00;53.70;;;;;;1569484;75;1948;-76
2024/03/13 08:58:50;;;;;;;;;;;20.10;53.80;;;;;;1562648;75;753;-73
2024/03/13 09:00:52;;;;;;;;;;;20.10;53.80;;;;;;1562645;75;709;-71
2024/03/13 09:02:56;;;;;;;;;;;20.10;53.80;;;;;;1562824;75;1168;-71
2024/03/13 09:04:57;;;;;;;;;;;20.20;53.80;;;;;;1563861;75;1930;-73
2024/03/13 09:07:05;;;;;;;;;;;20.10;53.80;;;;;;1566874;74;642;-73
2024/03/13 09:09:06;;;;;;;;;;;20.10;53.70;;;;;;1544903;75;1645;-70
2024/03/13 09:11:08;;;;;;;;;;;20.10;53.70;;;;;;1547116;75;791;-71
2024/03/13 09:13:12;;;;;;;;;;;20.10;53.70;;;;;;1551063;75;1203;-72
2024/03/13 09:15:13;;;;;;;;;;;20.10;53.70;;;;;;1545015;75;1634;-72
2024/03/13 09:17:15;;;;;;;;;;;20.20;53.80;;;;;;1558008;75;725;-72
2024/03/13 09:19:18;;;;;;;;;;;20.10;53.70;;;;;;1556811;75;725;-69
2024/03/13 09:21:19;;;;;;;;;;;20.10;53.80;;;;;;1561780;75;757;-70
2024/03/13 09:23:21;;;;;;;;;;;20.10;53.70;;;;;;1549515;75;1134;-74
2024/03/13 09:25:24;;;;;;;;;;;20.20;53.70;;;;;;1568013;75;1930;-74
2024/03/13 09:27:25;;;;;;;;;;;20.10;53.70;;;;;;1549628;75;731;-71
2024/03/13 09:29:27;;;;;;;;;;;20.00;53.60;;;;;;1559098;75;738;-73
2024/03/13 09:31:30;;;;;;;;;;;20.10;53.70;;;;;;1552258;75;712;-73
2024/03/13 09:33:31;;;;;;;;;;;20.10;53.80;;;;;;1560378;75;1110;-71
2024/03/13 09:35:33;;;;;;;;;;;20.10;53.70;;;;;;1551688;75;727;-70
2024/03/13 09:37:40;;;;;;;;;;;20.10;53.70;;;;;;1541207;75;751;-74
2024/03/13 09:39:41;;;;;;;;;;;20.10;53.70;;;;;;1556932;75;654;-72
2024/03/13 09:41:44;;;;;;;;;;;20.20;53.70;;;;;;1550679;75;738;-71
2024/03/13 09:43:45;;;;;;;;;;;20.20;53.70;;;;;;1558730;75;1113;-72
2024/03/13 09:45:47;;;;;;;;;;;20.10;53.70;;;;;;1549232;75;1979;-70
2024/03/13 09:47:49;;;;;;;;;;;20.20;53.60;;;;;;1560544;74;714;-70
2024/03/13 09:49:51;;;;;;;;;;;20.10;53.60;;;;;;1556499;75;729;-74
2024/03/13 09:51:53;;;;;;;;;;;20.10;53.60;;;;;;1547287;75;764;-71
2024/03/13 09:53:55;;;;;;;;;;;20.10;53.60;;;;;;1548734;75;1097;-72
2024/03/13 09:55:57;;;;;;;;;;;20.10;53.60;;;;;;1558189;75;718;-72
2024/03/13 09:57:59;;;;;;;;;;;20.20;53.60;;;;;;1556489;75;655;-75
2024/03/13 10:00:02;;;;;;;;;;;20.20;53.60;;;;;;1564171;75;643;-71
2024/03/13 10:02:04;;;;;;;;;;;20.10;53.60;;;;;;1544391;75;767;-71
2024/03/13 10:04:10;;;;;;;;;;;20.20;53.60;;;;;;1554126;75;1106;-71
2024/03/13 10:06:11;;;;;;;;;;;20.20;53.60;;;;;;1551376;75;1917;-71
2024/03/13 10:08:13;;;;;;;;;;;20.10;53.50;;;;;;1554914;75;734;-71
2024/03/13 10:10:18;;;;;;;;;;;20.20;53.60;;;;;;1542648;76;1092;-71
2024/03/13 10:12:20;;;;;;;;;;;20.20;53.50;;;;;;1541243;76;1174;-74
2024/03/13 10:14:22;;;;;;;;;;;20.20;53.60;;;;;;1529302;76;745;-74
2024/03/13 10:16:24;;;;;;;;;;;20.20;53.50;;;;;;1532908;76;730;-71
2024/03/13 10:18:26;;;;;;;;;;;20.10;53.50;;;;;;1540210;76;724;-72
2024/03/13 10:20:29;;;;;;;;;;;20.10;53.50;;;;;;1540926;75;720;-72
2024/03/13 10:22:31;;;;;;;;;;;20.20;53.50;;;;;;1537399;76;1183;-72
2024/03/13 10:24:33;;;;;;;;;;;20.20;53.50;;;;;;1537149;76;664;-73
2024/03/13 10:26:38;;;;;;;;;;;20.20;53.50;;;;;;1532226;76;1931;-74
2024/03/13 10:28:38;;;;;;;;;;;20.20;53.50;;;;;;1545367;76;1629;-70
2024/03/13 10:30:40;;;;;;;;;;;20.20;53.40;;;;;;1543484;76;599;-71
2024/03/13 10:32:42;;;;;;;;;;;20.20;53.50;;;;;;1530516;76;1138;-70
2024/03/13 10:34:44;;;;;;;;;;;20.20;53.40;;;;;;1550988;76;780;-71
2024/03/13 10:36:46;;;;;;;;;;;20.20;53.40;;;;;;1540628;76;707;-72
2024/03/13 10:38:48;;;;;;;;;;;20.20;53.40;;;;;;1546692;76;568;-72
2024/03/13 10:40:50;;;;;;;;;;;20.20;53.40;;;;;;1540276;76;717;-74
2024/03/13 10:42:52;;;;;;;;;;;20.20;53.40;;;;;;1554978;76;1133;-74
2024/03/13 10:44:54;;;;;;;;;;;20.20;53.40;;;;;;1536938;76;941;-71
2024/03/13 10:46:56;;;;;;;;;;;20.10;53.40;;;;;;1539040;76;1941;-71
2024/03/13 10:48:59;;;;;;;;;;;20.20;53.40;;;;;;1538037;76;727;-71
2024/03/13 10:51:01;;;;;;;;;;;20.20;53.40;;;;;;1539527;76;728;-76
2024/03/13 10:53:05;;;;;;;;;;;20.20;53.40;;;;;;1506279;77;1140;-71
2024/03/13 10:55:08;;;;;;;;;;;20.10;53.40;;;;;;1543732;76;822;-73
2024/03/13 10:57:11;;;;;;;;;;;20.20;53.30;;;;;;1549773;76;829;-70
2024/03/13 10:59:13;;;;;;;;;;;20.20;53.30;;;;;;1544271;76;1596;-76
2024/03/13 11:01:16;;;;;;;;;;;20.20;53.30;;;;;;1547890;76;836;-71
2024/03/13 11:03:18;;;;;;;;;;;20.20;53.40;;;;;;1534062;76;1238;-71
2024/03/13 11:05:20;;;;;;;;;;;20.10;53.30;;;;;;1548363;76;680;-74
2024/03/13 11:07:22;;;;;;;;;;;20.20;53.30;;;;;;1541637;76;1940;-72
2024/03/13 11:09:23;;;;;;;;;;;20.20;53.30;;;;;;1543893;76;965;-72
2024/03/13 11:11:26;;;;;;;;;;;20.10;53.40;;;;;;1557994;76;569;-70
2024/03/13 11:13:27;;;;;;;;;;;20.10;53.30;;;;;;1566519;75;1164;-71
2024/03/13 11:15:34;;;;;;;;;;;20.10;53.30;;;;;;1553689;76;1043;-71
2024/03/13 11:17:36;;;;;;;;;;;20.10;53.30;;;;;;1559946;76;897;-70
2024/03/13 11:19:38;;;;;;;;;;;20.20;53.20;;;;;;1554707;76;771;-71
2024/03/13 11:21:54;;;;;;;;;;;20.20;53.30;;;;;;1563166;75;875;-71
2024/03/13 11:23:58;;;;;;;;;;;20.20;53.30;;;;;;1554896;75;1207;-70
2024/03/13 11:26:03;;;;;;;;;;;20.10;53.20;;;;;;1560687;75;2047;-70
2024/03/13 11:28:06;;;;;;;;;;;20.10;53.20;;;;;;1563997;75;1309;-70
2024/03/13 11:30:08;;;;;;;;;;;20.10;53.20;;;;;;1562166;75;685;-70
2024/03/13 11:32:11;;;;;;;;;;;20.10;53.10;;;;;;1562785;76;712;-72
2024/03/13 11:34:14;;;;;;;;;;;20.20;53.20;;;;;;1552032;75;1065;-71
2024/03/13 11:36:16;;;;;;;;;;;20.20;53.20;;;;;;1565371;76;662;-72
2024/03/13 11:38:18;;;;;;;;;;;20.20;53.20;;;;;;1562379;75;776;-73
2024/03/13 11:40:21;;;;;;;;;;;20.10;53.10;;;;;;1563397;76;678;-71
2024/03/13 11:42:26;;;;;;;;;;;20.20;53.10;;;;;;1564084;76;1160;-76
2024/03/13 11:44:28;;;;;;;;;;;20.20;53.10;;;;;;1553796;76;1191;-72
2024/03/13 11:46:43;;;;;;;;;;;20.20;53.10;;;;;;1533072;76;1924;-71
2024/03/13 11:48:45;;;;;;;;;;;20.20;53.10;;;;;;1556517;75;756;-71
2024/03/13 11:51:05;;;;;;;;;;;20.10;53.10;;;;;;1558499;76;773;-71
2024/03/13 11:53:08;;;;;;;;;;;20.20;53.10;;;;;;1555010;75;1134;-72
2024/03/13 11:55:25;;;;;;;;;;;20.20;53.10;;;;;;1529802;76;1137;-78
2024/03/13 11:57:28;;;;;;;;;;;20.10;53.10;;;;;;1561270;75;723;-71
2024/03/13 11:59:46;;;;;;;;;;;20.10;53.10;;;;;;1563935;75;766;-75
2024/03/13 12:01:48;;;;;;;;;;;20.10;53.10;;;;;;1555188;75;1773;-70
2024/03/13 12:03:50;;;;;;;;;;;20.20;53.10;;;;;;1561962;75;1093;-72
2024/03/13 12:05:52;;;;;;;;;;;20.10;53.00;;;;;;1518755;76;1926;-76
2024/03/13 12:07:54;;;;;;;;;;;20.10;53.00;;;;;;1568062;75;721;-77
2024/03/13 12:09:56;;;;;;;;;;;20.10;53.00;;;;;;1559654;76;977;-72
2024/03/13 12:12:04;;;;;;;;;;;20.20;53.00;;;;;;1533857;76;697;-72
2024/03/13 12:14:01;;;;;;;;;;;20.10;53.00;;;;;;1540482;76;1186;-70
2024/03/13 12:16:03;;;;;;;;;;;20.20;53.00;;;;;;1539836;76;717;-71
2024/03/13 12:18:06;;;;;;;;;;;20.20;53.00;;;;;;1544242;76;761;-71
2024/03/13 12:20:12;;;;;;;;;;;20.10;53.00;;;;;;1482605;79;689;-71
2024/03/13 12:22:13;;;;;;;;;;;20.10;53.00;;;;;;1485789;79;1111;-70
2024/03/13 12:24:15;;;;;;;;;;;20.20;53.00;;;;;;1479160;80;1170;-72
2024/03/13 12:26:17;;;;;;;;;;;20.20;53.00;;;;;;1478936;79;1938;-70
2024/03/13 12:28:21;;;;;;;;;;;20.10;53.00;;;;;;1483879;79;774;-72
2024/03/13 12:30:24;;;;;;;;;;;20.20;52.90;;;;;;1482313;80;875;-71
2024/03/13 12:32:27;;;;;;;;;;;20.20;52.90;;;;;;1483591;80;1165;-75